Delray Beach, FL (33446)

12:29 AM EDT on July 26, 2016 (GMT -0400)
J-Ball at Mizner Country Club | | Change Station

Elev 19 ft 26.43 °N, 80.18 °W | Updated 21 seconds ago

Partly Cloudy
Partly Cloudy
83.1 °F
Feels Like 92 °F
N
0.0
Wind Variable Wind from East
Gusts 1.0 mph

Today
High -- | Low -- °F
--% Chance of Precip.
Yesterday
High -- | Low -- °F
Precip. -- in
Pressure 30.07 in
Visibility 10.0 miles
Clouds Few 4600 ft
Heat Index 92 °F
Dew Point 77 °F
Humidity 82%
Rainfall 0.00 in
Snow Depth Not available.
6:43 AM 8:11 PM
Waning Gibbous, 59% visible
METAR KPMP 260353Z AUTO 11006KT 10SM FEW046 29/24 A3007 RMK AO2 RAB14E25 SLP182 P0000 T02890244
Pressure 30.07 in
Visibility 10.0 miles
Clouds Few 4600 ft
Heat Index 92 °F
Dew Point 77 °F
Humidity 82%
Rainfall 0.00 in
Snow Depth Not available.
6:43 AM 8:11 PM
Waning Gibbous, 59% visible
METAR KPMP 260353Z AUTO 11006KT 10SM FEW046 29/24 A3007 RMK AO2 RAB14E25 SLP182 P0000 T02890244

10-Day Weather Forecast

Almanac

Astronomy

Jul. 26, 2016 Rise Set
Actual Time
Civil Twilight
Nautical Twilight
Astronomical Twilight
Moon
Length of Visible Light
Length of Day
Tomorrow will be .
, % of the Moon is Illuminated

Today's Extremes

State Highs State Lows

Community

WunderPhotos

Upload Photos

1,927,530 photos uploaded!

WunderBlog® & News

Nearby

Air Quality

  Air Quality AQ Index Pollutant
Not available.

Snow Depth

Station Depth Elevation

Earthquake Activity

City Distance Mag. Time & Date
Minimum magnitude displayed is 2.5.

Coastal Water Temperatures

Place Temperature

Stations

Nearby Weather Stations

Station Location Temp. Windchill Dew Point Humidity Wind Precip. Elev Updated Type
                   

Watches & Warnings

There are currently no watches in effect.